sensor_id;sensor_type;location;lat;lon;timestamp;pressure;altitude;pressure_sealevel;temperature;humidity
76478;BME280;65309;49.790;18.972;2023-04-28T00:00:00;97104.19;;;0.51;85.93
76478;BME280;65309;49.790;18.972;2023-04-28T00:05:24;97098.53;;;0.34;87.26
76478;BME280;65309;49.790;18.972;2023-04-28T00:10:29;97098.53;;;0.34;87.11
76478;BME280;65309;49.790;18.972;2023-04-28T00:15:31;97088.59;;;0.21;88.16
76478;BME280;65309;49.790;18.972;2023-04-28T00:20:33;97091.69;;;0.19;88.23
76478;BME280;65309;49.790;18.972;2023-04-28T00:25:36;97094.94;;;0.07;88.05
76478;BME280;65309;49.790;18.972;2023-04-28T00:30:38;97093.03;;;0.04;89.05
76478;BME280;65309;49.790;18.972;2023-04-28T00:35:40;97094.59;;;-0.02;89.54
76478;BME280;65309;49.790;18.972;2023-04-28T00:40:44;97084.59;;;-0.12;89.50
76478;BME280;65309;49.790;18.972;2023-04-28T00:45:47;97080.72;;;-0.11;89.92
76478;BME280;65309;49.790;18.972;2023-04-28T00:50:50;97075.19;;;-0.01;89.51
76478;BME280;65309;49.790;18.972;2023-04-28T00:55:54;97091.41;;;0.10;88.81
76478;BME280;65309;49.790;18.972;2023-04-28T01:01:01;97088.38;;;0.38;86.64
76478;BME280;65309;49.790;18.972;2023-04-28T01:06:05;97094.28;;;0.33;86.96
76478;BME280;65309;49.790;18.972;2023-04-28T01:11:08;97095.41;;;0.36;86.11
76478;BME280;65309;49.790;18.972;2023-04-28T01:16:15;97105.59;;;0.28;86.84
76478;BME280;65309;49.790;18.972;2023-04-28T01:21:24;97102.28;;;0.10;88.13
76478;BME280;65309;49.790;18.972;2023-04-28T01:26:28;97103.44;;;0.09;87.99
76478;BME280;65309;49.790;18.972;2023-04-28T01:31:30;97095.69;;;0.08;87.89
76478;BME280;65309;49.790;18.972;2023-04-28T01:36:33;97108.28;;;-0.09;88.28
76478;BME280;65309;49.790;18.972;2023-04-28T01:41:39;97098.19;;;-0.12;88.05
76478;BME280;65309;49.790;18.972;2023-04-28T01:46:41;97090.56;;;-0.28;89.62
76478;BME280;65309;49.790;18.972;2023-04-28T01:51:43;97088.94;;;-0.18;89.01
76478;BME280;65309;49.790;18.972;2023-04-28T01:56:47;97083.31;;;0.03;88.87
76478;BME280;65309;49.790;18.972;2023-04-28T02:01:49;97081.91;;;0.25;87.46
76478;BME280;65309;49.790;18.972;2023-04-28T02:06:51;97096.13;;;0.43;86.14
76478;BME280;65309;49.790;18.972;2023-04-28T02:11:55;97093.69;;;0.53;86.11
76478;BME280;65309;49.790;18.972;2023-04-28T02:16:57;97086.00;;;0.44;86.87
76478;BME280;65309;49.790;18.972;2023-04-28T02:21:59;97084.50;;;0.39;87.15
76478;BME280;65309;49.790;18.972;2023-04-28T02:27:02;97086.09;;;0.37;87.44
76478;BME280;65309;49.790;18.972;2023-04-28T02:32:05;97077.97;;;0.30;87.41
76478;BME280;65309;49.790;18.972;2023-04-28T02:37:07;97082.22;;;0.34;87.42
76478;BME280;65309;49.790;18.972;2023-04-28T02:42:10;97079.44;;;0.41;86.71
76478;BME280;65309;49.790;18.972;2023-04-28T02:47:12;97075.25;;;0.30;86.85
76478;BME280;65309;49.790;18.972;2023-04-28T02:52:14;97073.69;;;0.32;87.47
76478;BME280;65309;49.790;18.972;2023-04-28T02:57:17;97072.44;;;0.40;86.47
76478;BME280;65309;49.790;18.972;2023-04-28T03:02:19;97084.50;;;0.39;87.06
76478;BME280;65309;49.790;18.972;2023-04-28T03:07:24;97079.88;;;0.36;86.38
76478;BME280;65309;49.790;18.972;2023-04-28T03:12:27;97081.44;;;0.37;87.47
76478;BME280;65309;49.790;18.972;2023-04-28T03:17:29;97081.47;;;0.30;88.02
76478;BME280;65309;49.790;18.972;2023-04-28T03:22:32;97075.97;;;0.37;87.20
76478;BME280;65309;49.790;18.972;2023-04-28T03:27:36;97083.69;;;0.42;86.66
76478;BME280;65309;49.790;18.972;2023-04-28T03:32:38;97074.25;;;0.51;85.84
76478;BME280;65309;49.790;18.972;2023-04-28T03:37:40;97070.16;;;0.69;85.54
76478;BME280;65309;49.790;18.972;2023-04-28T03:42:43;97067.41;;;0.73;85.49
76478;BME280;65309;49.790;18.972;2023-04-28T03:47:45;97064.97;;;0.82;84.91
76478;BME280;65309;49.790;18.972;2023-04-28T03:52:47;97049.53;;;1.02;84.32
76478;BME280;65309;49.790;18.972;2023-04-28T03:57:50;97050.81;;;1.48;80.89
76478;BME280;65309;49.790;18.972;2023-04-28T04:02:52;97056.25;;;1.74;80.10
76478;BME280;65309;49.790;18.972;2023-04-28T04:07:55;97055.00;;;2.02;78.13
76478;BME280;65309;49.790;18.972;2023-04-28T04:12:58;97049.69;;;2.15;79.19
76478;BME280;65309;49.790;18.972;2023-04-28T04:18:00;97053.75;;;2.50;77.65
76478;BME280;65309;49.790;18.972;2023-04-28T04:23:02;97056.66;;;2.98;74.48
76478;BME280;65309;49.790;18.972;2023-04-28T04:28:05;97050.69;;;3.39;73.41
76478;BME280;65309;49.790;18.972;2023-04-28T04:33:08;97058.66;;;3.82;71.59
76478;BME280;65309;49.790;18.972;2023-04-28T04:38:11;97059.66;;;4.21;68.55
76478;BME280;65309;49.790;18.972;2023-04-28T04:43:15;97058.25;;;4.45;68.68
76478;BME280;65309;49.790;18.972;2023-04-28T04:48:17;97056.66;;;5.01;64.87
76478;BME280;65309;49.790;18.972;2023-04-28T04:53:19;97063.31;;;5.80;60.79
76478;BME280;65309;49.790;18.972;2023-04-28T04:58:22;97058.13;;;6.54;59.59
76478;BME280;65309;49.790;18.972;2023-04-28T05:03:24;97057.72;;;7.08;56.09
76478;BME280;65309;49.790;18.972;2023-04-28T05:08:27;97055.38;;;7.50;53.92
76478;BME280;65309;49.790;18.972;2023-04-28T05:13:30;97070.47;;;7.85;50.44
76478;BME280;65309;49.790;18.972;2023-04-28T05:18:32;97065.81;;;8.13;49.10
76478;BME280;65309;49.790;18.972;2023-04-28T05:23:34;97073.25;;;8.35;49.57
76478;BME280;65309;49.790;18.972;2023-04-28T05:28:38;97073.09;;;8.47;48.65
76478;BME280;65309;49.790;18.972;2023-04-28T05:33:40;97065.00;;;8.62;48.30
76478;BME280;65309;49.790;18.972;2023-04-28T05:38:42;97070.97;;;8.69;47.79
76478;BME280;65309;49.790;18.972;2023-04-28T05:43:45;97066.97;;;8.80;47.97
76478;BME280;65309;49.790;18.972;2023-04-28T05:48:48;97068.47;;;9.08;47.24
76478;BME280;65309;49.790;18.972;2023-04-28T05:53:50;97067.84;;;9.22;45.90
76478;BME280;65309;49.790;18.972;2023-04-28T05:58:53;97074.59;;;9.30;45.92
76478;BME280;65309;49.790;18.972;2023-04-28T06:03:55;97063.47;;;9.48;45.31
76478;BME280;65309;49.790;18.972;2023-04-28T06:08:59;97071.88;;;9.63;43.57
76478;BME280;65309;49.790;18.972;2023-04-28T06:14:03;97077.75;;;9.89;44.96
76478;BME280;65309;49.790;18.972;2023-04-28T06:19:05;97072.13;;;10.16;46.07
76478;BME280;65309;49.790;18.972;2023-04-28T06:24:07;97070.66;;;10.30;43.74
76478;BME280;65309;49.790;18.972;2023-04-28T06:29:11;97056.59;;;10.42;42.91
76478;BME280;65309;49.790;18.972;2023-04-28T06:34:13;97065.44;;;10.55;44.55
76478;BME280;65309;49.790;18.972;2023-04-28T06:39:15;97069.88;;;10.53;40.61
76478;BME280;65309;49.790;18.972;2023-04-28T06:44:19;97066.53;;;10.73;44.03
76478;BME280;65309;49.790;18.972;2023-04-28T06:49:21;97063.41;;;10.80;41.53
76478;BME280;65309;49.790;18.972;2023-04-28T06:54:23;97059.22;;;10.99;41.17
76478;BME280;65309;49.790;18.972;2023-04-28T06:59:26;97059.72;;;11.12;42.70
76478;BME280;65309;49.790;18.972;2023-04-28T07:04:28;97068.03;;;11.12;41.08
76478;BME280;65309;49.790;18.972;2023-04-28T07:09:30;97056.97;;;11.41;45.12
76478;BME280;65309;49.790;18.972;2023-04-28T07:14:34;97050.22;;;11.92;47.90
76478;BME280;65309;49.790;18.972;2023-04-28T07:19:36;97044.13;;;11.88;40.71
76478;BME280;65309;49.790;18.972;2023-04-28T07:24:38;97043.94;;;12.47;42.42
76478;BME280;65309;49.790;18.972;2023-04-28T07:29:42;97033.50;;;12.62;38.80
76478;BME280;65309;49.790;18.972;2023-04-28T07:34:44;97031.25;;;12.86;36.88
76478;BME280;65309;49.790;18.972;2023-04-28T07:39:46;97027.53;;;12.89;39.29
76478;BME280;65309;49.790;18.972;2023-04-28T07:44:49;97025.53;;;13.15;36.30
76478;BME280;65309;49.790;18.972;2023-04-28T07:49:51;97021.81;;;13.50;36.59
76478;BME280;65309;49.790;18.972;2023-04-28T07:54:53;97030.69;;;13.54;35.31
76478;BME280;65309;49.790;18.972;2023-04-28T07:59:56;97017.94;;;13.42;36.71
76478;BME280;65309;49.790;18.972;2023-04-28T08:04:58;97011.69;;;13.47;37.87
76478;BME280;65309;49.790;18.972;2023-04-28T08:10:01;97019.31;;;13.00;37.74
76478;BME280;65309;49.790;18.972;2023-04-28T08:15:05;97009.75;;;13.07;35.15
76478;BME280;65309;49.790;18.972;2023-04-28T08:20:08;97008.31;;;12.85;40.67
76478;BME280;65309;49.790;18.972;2023-04-28T08:25:10;97008.41;;;12.71;36.11
76478;BME280;65309;49.790;18.972;2023-04-28T08:30:13;97007.63;;;13.16;37.84
76478;BME280;65309;49.790;18.972;2023-04-28T08:35:16;96996.03;;;13.18;41.54
76478;BME280;65309;49.790;18.972;2023-04-28T08:40:19;96999.06;;;13.20;38.83
76478;BME280;65309;49.790;18.972;2023-04-28T08:45:24;96995.81;;;13.53;36.32
76478;BME280;65309;49.790;18.972;2023-04-28T08:50:29;96978.59;;;13.49;37.83
76478;BME280;65309;49.790;18.972;2023-04-28T08:55:32;96993.06;;;14.38;34.56
76478;BME280;65309;49.790;18.972;2023-04-28T09:00:37;96990.47;;;14.93;38.65
76478;BME280;65309;49.790;18.972;2023-04-28T09:05:39;96982.50;;;14.53;34.69
76478;BME280;65309;49.790;18.972;2023-04-28T09:10:42;96982.56;;;14.75;37.72
76478;BME280;65309;49.790;18.972;2023-04-28T09:15:45;96996.66;;;14.44;32.36
76478;BME280;65309;49.790;18.972;2023-04-28T09:20:47;96977.53;;;14.79;31.91
76478;BME280;65309;49.790;18.972;2023-04-28T09:25:58;96971.50;;;14.97;34.77
76478;BME280;65309;49.790;18.972;2023-04-28T09:31:02;96967.97;;;15.13;33.92
76478;BME280;65309;49.790;18.972;2023-04-28T09:36:05;96963.91;;;15.14;32.59
76478;BME280;65309;49.790;18.972;2023-04-28T09:41:07;96957.53;;;14.92;31.54
76478;BME280;65309;49.790;18.972;2023-04-28T09:46:10;96952.16;;;14.66;35.15
76478;BME280;65309;49.790;18.972;2023-04-28T09:51:19;96946.84;;;14.57;32.64
76478;BME280;65309;49.790;18.972;2023-04-28T09:56:22;96946.09;;;14.62;36.74
76478;BME280;65309;49.790;18.972;2023-04-28T10:01:31;96941.00;;;14.44;35.88
76478;BME280;65309;49.790;18.972;2023-04-28T10:06:34;96929.22;;;15.10;36.29
76478;BME280;65309;49.790;18.972;2023-04-28T10:11:37;96907.94;;;15.24;35.62
76478;BME280;65309;49.790;18.972;2023-04-28T10:16:42;96914.72;;;14.56;33.06
76478;BME280;65309;49.790;18.972;2023-04-28T10:21:53;96906.19;;;14.11;33.91
76478;BME280;65309;49.790;18.972;2023-04-28T10:27:06;96904.97;;;13.70;35.95
76478;BME280;65309;49.790;18.972;2023-04-28T10:32:17;96893.22;;;14.56;37.15
76478;BME280;65309;49.790;18.972;2023-04-28T10:38:01;96894.50;;;14.61;34.83
76478;BME280;65309;49.790;18.972;2023-04-28T10:43:04;96883.34;;;14.83;37.38
76478;BME280;65309;49.790;18.972;2023-04-28T10:48:08;96875.13;;;14.18;32.65
76478;BME280;65309;49.790;18.972;2023-04-28T10:53:10;96870.88;;;13.75;35.65
76478;BME280;65309;49.790;18.972;2023-04-28T10:58:30;96855.88;;;14.09;35.80
76478;BME280;65309;49.790;18.972;2023-04-28T11:03:47;96848.94;;;14.86;36.46
76478;BME280;65309;49.790;18.972;2023-04-28T11:08:56;96838.25;;;15.35;33.59
76478;BME280;65309;49.790;18.972;2023-04-28T11:14:30;96833.91;;;15.45;31.94
76478;BME280;65309;49.790;18.972;2023-04-28T11:19:37;96837.31;;;16.47;32.68
76478;BME280;65309;49.790;18.972;2023-04-28T11:24:39;96825.97;;;15.82;30.33
76478;BME280;65309;49.790;18.972;2023-04-28T11:29:42;96815.91;;;15.68;32.65
76478;BME280;65309;49.790;18.972;2023-04-28T11:34:50;96814.31;;;16.30;32.87
76478;BME280;65309;49.790;18.972;2023-04-28T11:39:52;96807.84;;;15.37;33.51
76478;BME280;65309;49.790;18.972;2023-04-28T11:44:54;96807.09;;;16.10;34.60
76478;BME280;65309;49.790;18.972;2023-04-28T11:49:58;96803.75;;;16.94;33.88
76478;BME280;65309;49.790;18.972;2023-04-28T11:55:02;96802.47;;;16.19;32.74
76478;BME280;65309;49.790;18.972;2023-04-28T12:00:11;96801.06;;;15.95;29.96
76478;BME280;65309;49.790;18.972;2023-04-28T12:05:16;96793.31;;;16.24;29.89
76478;BME280;65309;49.790;18.972;2023-04-28T12:10:18;96784.00;;;16.86;33.73
76478;BME280;65309;49.790;18.972;2023-04-28T12:15:20;96781.03;;;17.76;32.59
76478;BME280;65309;49.790;18.972;2023-04-28T12:20:36;96776.31;;;16.22;31.09
76478;BME280;65309;49.790;18.972;2023-04-28T12:25:42;96753.47;;;15.82;33.07
76478;BME280;65309;49.790;18.972;2023-04-28T12:30:45;96749.44;;;16.89;31.51
76478;BME280;65309;49.790;18.972;2023-04-28T12:35:48;96755.34;;;16.80;29.88
76478;BME280;65309;49.790;18.972;2023-04-28T12:40:51;96737.00;;;16.55;32.41
76478;BME280;65309;49.790;18.972;2023-04-28T12:45:53;96739.38;;;16.75;30.80
76478;BME280;65309;49.790;18.972;2023-04-28T12:50:57;96737.34;;;16.10;29.87
76478;BME280;65309;49.790;18.972;2023-04-28T12:55:59;96724.47;;;15.50;32.02
76478;BME280;65309;49.790;18.972;2023-04-28T13:01:01;96706.88;;;16.13;34.19
76478;BME280;65309;49.790;18.972;2023-04-28T13:06:05;96713.72;;;16.11;34.83
76478;BME280;65309;49.790;18.972;2023-04-28T13:11:07;96715.50;;;16.15;32.37
76478;BME280;65309;49.790;18.972;2023-04-28T13:16:23;96702.56;;;16.47;32.99
76478;BME280;65309;49.790;18.972;2023-04-28T13:21:33;96701.28;;;16.48;32.04
76478;BME280;65309;49.790;18.972;2023-04-28T13:26:36;96695.31;;;16.33;31.58
76478;BME280;65309;49.790;18.972;2023-04-28T13:31:39;96673.28;;;17.08;31.39
76478;BME280;65309;49.790;18.972;2023-04-28T13:36:43;96673.94;;;17.38;30.48
76478;BME280;65309;49.790;18.972;2023-04-28T13:41:45;96688.63;;;17.63;30.22
76478;BME280;65309;49.790;18.972;2023-04-28T13:46:47;96685.00;;;17.49;32.27
76478;BME280;65309;49.790;18.972;2023-04-28T13:51:51;96673.94;;;18.90;31.70
76478;BME280;65309;49.790;18.972;2023-04-28T13:56:53;96681.25;;;17.65;31.05
76478;BME280;65309;49.790;18.972;2023-04-28T14:01:56;96669.09;;;17.38;31.07
76478;BME280;65309;49.790;18.972;2023-04-28T14:06:59;96663.97;;;17.99;28.75
76478;BME280;65309;49.790;18.972;2023-04-28T14:12:02;96669.81;;;17.20;31.99
76478;BME280;65309;49.790;18.972;2023-04-28T14:17:04;96665.63;;;15.64;33.93
76478;BME280;65309;49.790;18.972;2023-04-28T14:22:08;96668.22;;;15.46;34.55
76478;BME280;65309;49.790;18.972;2023-04-28T14:27:09;96662.69;;;15.40;34.36
76478;BME280;65309;49.790;18.972;2023-04-28T14:32:12;96649.03;;;16.13;35.40
76478;BME280;65309;49.790;18.972;2023-04-28T14:37:15;96646.81;;;16.66;34.85
76478;BME280;65309;49.790;18.972;2023-04-28T14:42:18;96638.41;;;17.33;32.57
76478;BME280;65309;49.790;18.972;2023-04-28T14:47:20;96647.88;;;17.48;35.86
76478;BME280;65309;49.790;18.972;2023-04-28T14:52:25;96647.34;;;16.64;34.22
76478;BME280;65309;49.790;18.972;2023-04-28T14:57:31;96648.72;;;17.00;33.54
76478;BME280;65309;49.790;18.972;2023-04-28T15:02:35;96638.78;;;15.97;37.51
76478;BME280;65309;49.790;18.972;2023-04-28T15:07:39;96639.91;;;16.13;34.19
76478;BME280;65309;49.790;18.972;2023-04-28T15:12:41;96636.50;;;16.25;35.30
76478;BME280;65309;49.790;18.972;2023-04-28T15:17:43;96636.00;;;17.24;35.19
76478;BME280;65309;49.790;18.972;2023-04-28T15:22:47;96629.72;;;17.55;31.99
76478;BME280;65309;49.790;18.972;2023-04-28T15:27:49;96617.06;;;18.05;34.23
76478;BME280;65309;49.790;18.972;2023-04-28T15:32:51;96626.91;;;16.99;36.73
76478;BME280;65309;49.790;18.972;2023-04-28T15:37:55;96627.69;;;16.16;34.60
76478;BME280;65309;49.790;18.972;2023-04-28T15:42:57;96617.03;;;16.20;34.12
76478;BME280;65309;49.790;18.972;2023-04-28T15:47:59;96604.94;;;15.76;36.61
76478;BME280;65309;49.790;18.972;2023-04-28T15:53:03;96607.22;;;16.37;35.48
76478;BME280;65309;49.790;18.972;2023-04-28T15:58:05;96602.78;;;16.77;34.84
76478;BME280;65309;49.790;18.972;2023-04-28T16:03:10;96601.44;;;16.05;36.54
76478;BME280;65309;49.790;18.972;2023-04-28T16:08:13;96600.63;;;16.10;36.20
76478;BME280;65309;49.790;18.972;2023-04-28T16:13:15;96601.78;;;15.09;38.39
76478;BME280;65309;49.790;18.972;2023-04-28T16:18:17;96605.25;;;15.20;38.15
76478;BME280;65309;49.790;18.972;2023-04-28T16:23:21;96607.91;;;14.91;40.06
76478;BME280;65309;49.790;18.972;2023-04-28T16:28:23;96608.41;;;15.00;38.99
76478;BME280;65309;49.790;18.972;2023-04-28T16:33:25;96613.19;;;15.05;37.78
76478;BME280;65309;49.790;18.972;2023-04-28T16:38:28;96598.84;;;14.79;39.32
76478;BME280;65309;49.790;18.972;2023-04-28T16:43:30;96596.84;;;14.74;40.32
76478;BME280;65309;49.790;18.972;2023-04-28T16:48:33;96593.38;;;14.51;41.37
76478;BME280;65309;49.790;18.972;2023-04-28T16:53:37;96584.84;;;13.99;40.81
76478;BME280;65309;49.790;18.972;2023-04-28T16:58:39;96585.84;;;13.96;40.97
76478;BME280;65309;49.790;18.972;2023-04-28T17:03:41;96592.44;;;13.60;41.85
76478;BME280;65309;49.790;18.972;2023-04-28T17:08:45;96587.59;;;13.38;42.38
76478;BME280;65309;49.790;18.972;2023-04-28T17:13:47;96593.28;;;13.01;43.10
76478;BME280;65309;49.790;18.972;2023-04-28T17:18:49;96581.78;;;12.66;43.60
76478;BME280;65309;49.790;18.972;2023-04-28T17:23:55;96578.91;;;12.49;44.98
76478;BME280;65309;49.790;18.972;2023-04-28T17:28:58;96579.41;;;12.42;45.05
76478;BME280;65309;49.790;18.972;2023-04-28T17:34:00;96578.84;;;12.32;45.54
76478;BME280;65309;49.790;18.972;2023-04-28T17:39:04;96576.78;;;12.27;46.82
76478;BME280;65309;49.790;18.972;2023-04-28T17:44:06;96572.22;;;12.24;46.62
76478;BME280;65309;49.790;18.972;2023-04-28T17:49:08;96578.25;;;12.17;46.58
76478;BME280;65309;49.790;18.972;2023-04-28T17:54:11;96573.94;;;12.16;46.28
76478;BME280;65309;49.790;18.972;2023-04-28T17:59:13;96570.88;;;12.09;46.29
76478;BME280;65309;49.790;18.972;2023-04-28T18:04:16;96573.00;;;11.88;46.23
76478;BME280;65309;49.790;18.972;2023-04-28T18:09:20;96573.47;;;11.81;46.04
76478;BME280;65309;49.790;18.972;2023-04-28T18:14:22;96568.78;;;11.67;46.91
76478;BME280;65309;49.790;18.972;2023-04-28T18:19:25;96569.78;;;11.64;46.14
76478;BME280;65309;49.790;18.972;2023-04-28T18:24:29;96579.09;;;11.66;45.58
76478;BME280;65309;49.790;18.972;2023-04-28T18:29:31;96588.47;;;11.69;46.38
76478;BME280;65309;49.790;18.972;2023-04-28T18:34:33;96592.56;;;11.47;46.99
76478;BME280;65309;49.790;18.972;2023-04-28T18:39:37;96591.50;;;11.45;46.04
76478;BME280;65309;49.790;18.972;2023-04-28T18:44:39;96597.63;;;11.54;46.29
76478;BME280;65309;49.790;18.972;2023-04-28T18:49:42;96607.03;;;11.63;46.00
76478;BME280;65309;49.790;18.972;2023-04-28T18:54:45;96609.97;;;11.53;46.70
76478;BME280;65309;49.790;18.972;2023-04-28T18:59:47;96600.31;;;11.43;47.33
76478;BME280;65309;49.790;18.972;2023-04-28T19:04:51;96601.31;;;11.20;48.93
76478;BME280;65309;49.790;18.972;2023-04-28T19:09:55;96608.50;;;10.86;51.90
76478;BME280;65309;49.790;18.972;2023-04-28T19:14:57;96609.06;;;10.70;52.47
76478;BME280;65309;49.790;18.972;2023-04-28T19:19:59;96613.94;;;10.60;51.65
76478;BME280;65309;49.790;18.972;2023-04-28T19:25:04;96614.25;;;10.83;50.45
76478;BME280;65309;49.790;18.972;2023-04-28T19:30:09;96609.94;;;10.61;56.04
76478;BME280;65309;49.790;18.972;2023-04-28T19:35:11;96600.47;;;10.48;56.04
76478;BME280;65309;49.790;18.972;2023-04-28T19:40:16;96597.91;;;10.44;54.69
76478;BME280;65309;49.790;18.972;2023-04-28T19:45:18;96595.00;;;10.33;53.14
76478;BME280;65309;49.790;18.972;2023-04-28T19:50:21;96586.06;;;10.24;56.82
76478;BME280;65309;49.790;18.972;2023-04-28T19:55:24;96580.75;;;10.20;53.89
76478;BME280;65309;49.790;18.972;2023-04-28T20:00:27;96576.19;;;10.17;53.97
76478;BME280;65309;49.790;18.972;2023-04-28T20:05:32;96576.22;;;10.37;52.27
76478;BME280;65309;49.790;18.972;2023-04-28T20:10:37;96571.03;;;10.45;52.01
76478;BME280;65309;49.790;18.972;2023-04-28T20:15:43;96572.75;;;10.42;51.62
76478;BME280;65309;49.790;18.972;2023-04-28T20:20:45;96572.56;;;10.46;51.87
76478;BME280;65309;49.790;18.972;2023-04-28T20:25:49;96569.66;;;10.35;52.92
76478;BME280;65309;49.790;18.972;2023-04-28T20:30:51;96563.56;;;10.51;51.83
76478;BME280;65309;49.790;18.972;2023-04-28T20:35:54;96570.47;;;10.61;51.29
76478;BME280;65309;49.790;18.972;2023-04-28T20:40:57;96569.31;;;10.68;50.53
76478;BME280;65309;49.790;18.972;2023-04-28T20:46:00;96568.75;;;10.64;50.84
76478;BME280;65309;49.790;18.972;2023-04-28T20:51:02;96568.69;;;10.58;50.95
76478;BME280;65309;49.790;18.972;2023-04-28T20:56:07;96567.38;;;10.53;52.14
76478;BME280;65309;49.790;18.972;2023-04-28T21:01:09;96561.03;;;10.47;52.13
76478;BME280;65309;49.790;18.972;2023-04-28T21:06:11;96557.97;;;10.45;52.60
76478;BME280;65309;49.790;18.972;2023-04-28T21:11:15;96566.69;;;10.38;53.80
76478;BME280;65309;49.790;18.972;2023-04-28T21:16:18;96559.59;;;10.17;55.18
76478;BME280;65309;49.790;18.972;2023-04-28T21:21:22;96555.31;;;10.16;55.80
76478;BME280;65309;49.790;18.972;2023-04-28T21:26:25;96555.03;;;10.14;56.85
76478;BME280;65309;49.790;18.972;2023-04-28T21:31:27;96540.97;;;9.97;56.62
76478;BME280;65309;49.790;18.972;2023-04-28T21:36:30;96542.41;;;9.93;58.19
76478;BME280;65309;49.790;18.972;2023-04-28T21:41:33;96552.59;;;9.87;58.70
76478;BME280;65309;49.790;18.972;2023-04-28T21:46:35;96541.16;;;9.94;59.63
76478;BME280;65309;49.790;18.972;2023-04-28T21:51:38;96538.28;;;10.03;60.07
76478;BME280;65309;49.790;18.972;2023-04-28T21:56:44;96547.41;;;10.09;60.21
76478;BME280;65309;49.790;18.972;2023-04-28T22:01:47;96546.25;;;10.15;60.60
76478;BME280;65309;49.790;18.972;2023-04-28T22:06:49;96525.47;;;10.20;61.29
76478;BME280;65309;49.790;18.972;2023-04-28T22:11:53;96525.06;;;10.27;61.27
76478;BME280;65309;49.790;18.972;2023-04-28T22:16:55;96527.81;;;10.27;61.67
76478;BME280;65309;49.790;18.972;2023-04-28T22:21:57;96522.56;;;10.29;61.56
76478;BME280;65309;49.790;18.972;2023-04-28T22:27:00;96513.72;;;10.25;62.55
76478;BME280;65309;49.790;18.972;2023-04-28T22:32:02;96517.47;;;10.22;62.92
76478;BME280;65309;49.790;18.972;2023-04-28T22:37:05;96509.22;;;10.28;62.78
76478;BME280;65309;49.790;18.972;2023-04-28T22:42:09;96505.53;;;10.31;63.02
76478;BME280;65309;49.790;18.972;2023-04-28T22:47:11;96501.78;;;10.34;62.64
76478;BME280;65309;49.790;18.972;2023-04-28T22:52:12;96500.47;;;10.29;62.11
76478;BME280;65309;49.790;18.972;2023-04-28T22:57:16;96511.53;;;10.29;60.97
76478;BME280;65309;49.790;18.972;2023-04-28T23:02:19;96508.28;;;10.31;61.22
76478;BME280;65309;49.790;18.972;2023-04-28T23:07:21;96513.38;;;10.38;61.57
76478;BME280;65309;49.790;18.972;2023-04-28T23:12:25;96499.28;;;10.36;62.25
76478;BME280;65309;49.790;18.972;2023-04-28T23:17:27;96492.03;;;10.38;62.21
76478;BME280;65309;49.790;18.972;2023-04-28T23:22:29;96490.50;;;10.37;61.30
76478;BME280;65309;49.790;18.972;2023-04-28T23:27:33;96488.03;;;10.39;62.18
76478;BME280;65309;49.790;18.972;2023-04-28T23:32:35;96478.16;;;10.33;62.14
76478;BME280;65309;49.790;18.972;2023-04-28T23:37:38;96471.31;;;10.28;61.97
76478;BME280;65309;49.790;18.972;2023-04-28T23:42:41;96470.13;;;10.35;62.09
76478;BME280;65309;49.790;18.972;2023-04-28T23:47:43;96459.13;;;10.40;61.62
76478;BME280;65309;49.790;18.972;2023-04-28T23:52:45;96450.84;;;10.40;61.95
76478;BME280;65309;49.790;18.972;2023-04-28T23:57:49;96447.13;;;10.43;62.50
